Terminal Aerodrome Forecast
Issued by NWS Knoxville/Tri Cities, TN

Home | Current Version | Previous Version | Text Only | Print | Product List | Glossary On
Versions: 1 2 3 4 5 6 7 8 9 10 11 12 13 14 15 16 17 18 19 20 21 22 23 24
000
FTUS44 KMRX 261720
TAFCHA
TAF
KCHA 261720Z 2618/2718 34003KT P6SM SCT050 SCT100 BKN150
     FM262000 VRB03KT P6SM VCTS SCT050CB BKN150
     FM270300 VRB02KT P6SM SCT030 SCT250
     FM271000 19003KT P6SM SCT250=

USA.gov is the U.S. government's official web portal to all federal, state and local government web resources and services.